Time;durP1;ratioP1;P1;durP2;ratioP2;P2;SDS_P1;SDS_P2;PMS_P1;PMS_P2;Temp;Humidity;BMP_temperature;BMP_pressure;BME280_temperature;BME280_humidity;BME280_pressure;Samples;Min_cycle;Max_cycle;Signal;HPM_P1;HPM_P2
2023/08/31 00:02:04;;;;;;;7.43;4.63;;;;;;;;;;5029022;28;20033;-68
2023/08/31 00:04:30;;;;;;;6.90;4.25;;;;;;;;;;5028585;28;20025;-69
2023/08/31 00:06:56;;;;;;;6.53;3.80;;;;;;;;;;5028897;28;20021;-68
2023/08/31 00:09:24;;;;;;;7.75;4.10;;;;;;;;;;5028887;28;20021;-68
2023/08/31 00:11:50;;;;;;;6.93;4.32;;;;;;;;;;5028899;28;20037;-69
2023/08/31 00:14:17;;;;;;;9.25;4.57;;;;;;;;;;5028338;28;20052;-68
2023/08/31 00:16:45;;;;;;;7.78;4.25;;;;;;;;;;5029179;28;20029;-70
2023/08/31 00:19:11;;;;;;;9.68;4.38;;;;;;;;;;5028935;28;20032;-70
2023/08/31 00:21:37;;;;;;;8.45;4.95;;;;;;;;;;5028758;28;20065;-70
2023/08/31 00:24:04;;;;;;;6.57;4.28;;;;;;;;;;5028965;28;20057;-70
2023/08/31 00:26:31;;;;;;;8.88;4.90;;;;;;;;;;5028467;28;20394;-70
2023/08/31 00:28:58;;;;;;;6.10;4.35;;;;;;;;;;5028279;28;20402;-69
2023/08/31 00:31:24;;;;;;;10.23;4.65;;;;;;;;;;5028367;28;20122;-68
2023/08/31 00:33:50;;;;;;;7.15;4.80;;;;;;;;;;5028601;28;20033;-68
2023/08/31 00:36:18;;;;;;;9.20;4.57;;;;;;;;;;5028686;28;20029;-69
2023/08/31 00:38:44;;;;;;;9.20;4.40;;;;;;;;;;5028572;28;20068;-68
2023/08/31 00:41:10;;;;;;;12.73;5.07;;;;;;;;;;5028526;28;20372;-68
2023/08/31 00:43:36;;;;;;;9.45;4.80;;;;;;;;;;5028108;28;20523;-69
2023/08/31 00:46:04;;;;;;;8.10;5.07;;;;;;;;;;5028465;28;20152;-69
2023/08/31 00:48:30;;;;;;;7.30;4.60;;;;;;;;;;5028470;28;20065;-69
2023/08/31 00:50:56;;;;;;;10.43;5.68;;;;;;;;;;5027754;28;20345;-69
2023/08/31 00:53:23;;;;;;;7.10;4.88;;;;;;;;;;5028577;28;20025;-69
2023/08/31 00:55:49;;;;;;;9.13;5.28;;;;;;;;;;5028369;28;20083;-69
2023/08/31 00:58:15;;;;;;;9.73;5.10;;;;;;;;;;5028395;28;20050;-69
2023/08/31 01:01:01;;;;;;;9.27;5.53;;;;;;;;;;5028592;28;20113;-69
2023/08/31 01:03:27;;;;;;;9.80;5.20;;;;;;;;;;5014389;28;20032;-69
2023/08/31 01:05:59;;;;;;;9.38;5.63;;;;;;;;;;5028560;28;20034;-69
2023/08/31 01:08:46;;;;;;;11.57;5.78;;;;;;;;;;5028434;28;20026;-69
2023/08/31 01:11:31;;;;;;;13.13;6.55;;;;;;;;;;5014408;28;20064;-69
2023/08/31 01:14:11;;;;;;;14.88;7.53;;;;;;;;;;5028546;28;20403;-69
2023/08/31 01:16:38;;;;;;;14.25;7.97;;;;;;;;;;5027742;28;20040;-69
2023/08/31 01:19:06;;;;;;;15.52;9.48;;;;;;;;;;5029865;28;20022;-68
2023/08/31 01:21:39;;;;;;;13.98;9.20;;;;;;;;;;5031811;28;20029;-69
2023/08/31 01:24:06;;;;;;;13.95;10.20;;;;;;;;;;5013945;28;20057;-70
2023/08/31 01:26:33;;;;;;;17.17;10.68;;;;;;;;;;5031404;28;20037;-69
2023/08/31 01:28:59;;;;;;;18.60;11.07;;;;;;;;;;5031566;28;20490;-70
2023/08/31 01:31:25;;;;;;;18.50;11.85;;;;;;;;;;5031881;28;20037;-69
2023/08/31 01:33:51;;;;;;;15.43;11.90;;;;;;;;;;5031949;28;20112;-69
2023/08/31 01:36:26;;;;;;;19.23;11.80;;;;;;;;;;5031728;28;20034;-69
2023/08/31 01:38:58;;;;;;;18.73;13.70;;;;;;;;;;5031507;28;20440;-70
2023/08/31 01:41:26;;;;;;;21.90;14.35;;;;;;;;;;5031462;28;20049;-69
2023/08/31 01:43:53;;;;;;;22.85;15.35;;;;;;;;;;5031198;28;20072;-69
2023/08/31 01:46:19;;;;;;;22.90;16.60;;;;;;;;;;5031313;28;20055;-69
2023/08/31 01:48:45;;;;;;;21.05;16.05;;;;;;;;;;5031583;28;20026;-69
2023/08/31 01:51:12;;;;;;;22.15;16.83;;;;;;;;;;5030810;28;20124;-69
2023/08/31 01:53:38;;;;;;;18.10;15.27;;;;;;;;;;5031451;28;20041;-70
2023/08/31 01:56:04;;;;;;;21.75;15.65;;;;;;;;;;5031238;28;20036;-68
2023/08/31 01:58:30;;;;;;;23.25;17.15;;;;;;;;;;5031115;28;20392;-69
2023/08/31 02:00:56;;;;;;;34.25;17.15;;;;;;;;;;5031111;28;20036;-69
2023/08/31 02:03:22;;;;;;;22.95;17.02;;;;;;;;;;5030903;28;20029;-69
2023/08/31 02:05:48;;;;;;;26.60;17.90;;;;;;;;;;5031122;28;20839;-69
2023/08/31 02:08:17;;;;;;;23.65;17.58;;;;;;;;;;5031121;28;20022;-69
2023/08/31 02:10:43;;;;;;;25.63;18.85;;;;;;;;;;5030944;28;20479;-69
2023/08/31 02:13:09;;;;;;;25.17;19.40;;;;;;;;;;5030754;28;20056;-69
2023/08/31 02:15:38;;;;;;;22.80;17.90;;;;;;;;;;5030906;28;20368;-68
2023/08/31 02:18:04;;;;;;;24.25;19.45;;;;;;;;;;5013067;28;20029;-69
2023/08/31 02:20:30;;;;;;;26.45;20.50;;;;;;;;;;5030475;28;20032;-68
2023/08/31 02:22:56;;;;;;;29.15;21.10;;;;;;;;;;5030715;28;20558;-69
2023/08/31 02:25:22;;;;;;;24.70;21.65;;;;;;;;;;5030556;28;20105;-69
2023/08/31 02:27:48;;;;;;;27.13;20.10;;;;;;;;;;5030446;28;20037;-69
2023/08/31 02:30:14;;;;;;;28.20;21.75;;;;;;;;;;5030423;28;20022;-70
2023/08/31 02:32:40;;;;;;;26.27;20.75;;;;;;;;;;5030523;28;20044;-69
2023/08/31 02:35:07;;;;;;;27.17;21.48;;;;;;;;;;5030786;28;20399;-69
2023/08/31 02:37:33;;;;;;;29.92;21.83;;;;;;;;;;5030356;28;20387;-69
2023/08/31 02:39:59;;;;;;;25.48;21.02;;;;;;;;;;5029717;28;20026;-69
2023/08/31 02:42:25;;;;;;;27.98;22.42;;;;;;;;;;5030241;28;20030;-69
2023/08/31 02:44:54;;;;;;;27.65;22.00;;;;;;;;;;5030598;28;20438;-69
2023/08/31 02:47:20;;;;;;;20.40;16.17;;;;;;;;;;5030162;28;20037;-70
2023/08/31 02:49:47;;;;;;;21.45;15.38;;;;;;;;;;5030035;28;20026;-69
2023/08/31 02:52:13;;;;;;;25.80;21.35;;;;;;;;;;5030224;28;20040;-69
2023/08/31 02:54:39;;;;;;;32.25;24.55;;;;;;;;;;5029931;28;20026;-70
2023/08/31 02:57:06;;;;;;;28.15;23.17;;;;;;;;;;5030098;28;20064;-69
2023/08/31 02:59:35;;;;;;;25.77;20.33;;;;;;;;;;5030066;28;20033;-69
2023/08/31 03:02:01;;;;;;;33.38;23.70;;;;;;;;;;5030107;28;20022;-69
2023/08/31 03:04:27;;;;;;;28.92;24.23;;;;;;;;;;5011708;28;20434;-70
2023/08/31 03:06:53;;;;;;;27.50;22.75;;;;;;;;;;5029967;28;20029;-69
2023/08/31 03:09:20;;;;;;;32.20;24.77;;;;;;;;;;5029640;28;20025;-70
2023/08/31 03:11:46;;;;;;;30.55;25.88;;;;;;;;;;5029645;28;20506;-69
2023/08/31 03:14:12;;;;;;;32.20;25.38;;;;;;;;;;5029543;28;20537;-69
2023/08/31 03:16:38;;;;;;;34.78;27.00;;;;;;;;;;5029746;28;20032;-69
2023/08/31 03:19:04;;;;;;;31.98;25.60;;;;;;;;;;5029749;28;20025;-69
2023/08/31 03:21:30;;;;;;;30.83;24.27;;;;;;;;;;5011086;28;20515;-69
2023/08/31 03:23:56;;;;;;;29.50;24.13;;;;;;;;;;5029869;28;20132;-70
2023/08/31 03:26:22;;;;;;;30.48;24.40;;;;;;;;;;5029264;28;20025;-69
2023/08/31 03:28:48;;;;;;;28.77;24.25;;;;;;;;;;5029616;28;20033;-69
2023/08/31 03:31:14;;;;;;;30.75;25.17;;;;;;;;;;5028873;28;20391;-70
2023/08/31 03:33:40;;;;;;;31.50;24.50;;;;;;;;;;5029545;28;20029;-70
2023/08/31 03:36:06;;;;;;;26.05;23.38;;;;;;;;;;5029440;28;20029;-69
2023/08/31 03:38:37;;;;;;;28.38;23.85;;;;;;;;;;5029115;28;20076;-69
2023/08/31 03:41:03;;;;;;;30.55;25.05;;;;;;;;;;5028977;28;20028;-69
2023/08/31 03:43:29;;;;;;;27.83;23.88;;;;;;;;;;5029128;28;20029;-69
2023/08/31 03:45:55;;;;;;;28.20;24.05;;;;;;;;;;5028644;28;20021;-69
2023/08/31 03:48:22;;;;;;;31.88;24.15;;;;;;;;;;5028811;28;20033;-69
2023/08/31 03:50:52;;;;;;;26.95;23.00;;;;;;;;;;5029333;28;20041;-69
2023/08/31 03:53:18;;;;;;;30.13;25.40;;;;;;;;;;5029095;28;20029;-69
2023/08/31 03:55:44;;;;;;;30.08;24.95;;;;;;;;;;5028936;28;20025;-69
2023/08/31 03:58:11;;;;;;;31.20;26.23;;;;;;;;;;5028666;28;20103;-69
2023/08/31 04:00:37;;;;;;;29.70;25.67;;;;;;;;;;5029146;28;20030;-69
2023/08/31 04:03:04;;;;;;;33.47;26.25;;;;;;;;;;5029119;28;20057;-69
2023/08/31 04:05:33;;;;;;;33.50;27.50;;;;;;;;;;5028624;28;20029;-69
2023/08/31 04:07:59;;;;;;;33.38;26.17;;;;;;;;;;5029033;28;20021;-68
2023/08/31 04:10:26;;;;;;;33.78;27.50;;;;;;;;;;5028653;28;20048;-69
2023/08/31 04:12:52;;;;;;;35.00;28.02;;;;;;;;;;5029021;28;20036;-69
2023/08/31 04:15:18;;;;;;;35.47;25.60;;;;;;;;;;5028791;28;20029;-70
2023/08/31 04:17:44;;;;;;;32.72;26.80;;;;;;;;;;5028440;28;20434;-70
2023/08/31 04:20:11;;;;;;;30.13;24.83;;;;;;;;;;5028894;28;20116;-70
2023/08/31 04:22:38;;;;;;;28.33;25.25;;;;;;;;;;5028740;28;20025;-69
2023/08/31 04:25:04;;;;;;;35.05;25.38;;;;;;;;;;5028151;28;20079;-70
2023/08/31 04:27:31;;;;;;;33.67;25.50;;;;;;;;;;5028583;28;20030;-70
2023/08/31 04:29:57;;;;;;;37.80;25.88;;;;;;;;;;5028643;28;20076;-70
2023/08/31 04:32:23;;;;;;;28.77;23.33;;;;;;;;;;5028489;28;20036;-69
2023/08/31 04:34:49;;;;;;;26.88;20.17;;;;;;;;;;5028903;28;20030;-70
2023/08/31 04:37:15;;;;;;;28.20;21.23;;;;;;;;;;5028382;28;20395;-70
2023/08/31 04:39:41;;;;;;;28.42;21.75;;;;;;;;;;5028925;28;20056;-69
2023/08/31 04:42:08;;;;;;;25.98;20.60;;;;;;;;;;5028536;28;20017;-70
2023/08/31 04:44:35;;;;;;;31.10;22.75;;;;;;;;;;5028444;28;20033;-70
2023/08/31 04:47:01;;;;;;;27.95;23.13;;;;;;;;;;5028531;28;20041;-69
2023/08/31 04:49:27;;;;;;;27.15;18.80;;;;;;;;;;5028591;28;20065;-70
2023/08/31 04:51:53;;;;;;;24.35;19.40;;;;;;;;;;5028374;28;20174;-70
2023/08/31 04:54:19;;;;;;;26.02;20.33;;;;;;;;;;5029712;28;20025;-70
2023/08/31 04:56:45;;;;;;;29.38;20.75;;;;;;;;;;5032018;28;20034;-70
2023/08/31 04:59:11;;;;;;;26.42;20.80;;;;;;;;;;5032327;28;20147;-70
2023/08/31 05:01:37;;;;;;;27.48;21.20;;;;;;;;;;5032277;28;20029;-70
2023/08/31 05:04:03;;;;;;;27.45;22.38;;;;;;;;;;5032408;28;20029;-70
2023/08/31 05:06:29;;;;;;;22.98;18.20;;;;;;;;;;5031551;28;20044;-69
2023/08/31 05:08:56;;;;;;;26.00;20.38;;;;;;;;;;5032139;28;20383;-70
2023/08/31 05:11:22;;;;;;;29.15;21.90;;;;;;;;;;5031751;28;20037;-70
2023/08/31 05:13:48;;;;;;;23.33;19.27;;;;;;;;;;5031827;28;20093;-69
2023/08/31 05:16:14;;;;;;;27.45;20.83;;;;;;;;;;5031708;28;20049;-70
2023/08/31 05:18:40;;;;;;;28.90;22.15;;;;;;;;;;5031467;28;20543;-69
2023/08/31 05:21:06;;;;;;;33.60;22.58;;;;;;;;;;5031872;28;20581;-69
2023/08/31 05:23:33;;;;;;;31.17;23.58;;;;;;;;;;5031563;28;20025;-68
2023/08/31 05:26:01;;;;;;;31.23;24.92;;;;;;;;;;5032005;28;20034;-69
2023/08/31 05:28:27;;;;;;;29.85;23.95;;;;;;;;;;5031075;28;20084;-68
2023/08/31 05:30:54;;;;;;;33.75;27.70;;;;;;;;;;5031558;28;20026;-69
2023/08/31 05:33:22;;;;;;;33.85;27.67;;;;;;;;;;5031466;28;20057;-69
2023/08/31 05:35:48;;;;;;;35.70;28.40;;;;;;;;;;5031445;28;20025;-69
2023/08/31 05:38:14;;;;;;;34.05;27.42;;;;;;;;;;5030842;28;20479;-69
2023/08/31 05:40:45;;;;;;;33.67;29.48;;;;;;;;;;5031421;28;20028;-68
2023/08/31 05:43:12;;;;;;;41.42;32.58;;;;;;;;;;5031333;28;20391;-69
2023/08/31 05:45:38;;;;;;;36.53;31.00;;;;;;;;;;5031285;28;20060;-69
2023/08/31 05:48:04;;;;;;;40.85;29.55;;;;;;;;;;5031220;28;20053;-69
2023/08/31 05:50:30;;;;;;;42.67;32.60;;;;;;;;;;5030840;28;20029;-69
2023/08/31 05:52:57;;;;;;;38.50;32.50;;;;;;;;;;5031460;28;20108;-69
2023/08/31 05:55:23;;;;;;;38.47;30.27;;;;;;;;;;5030912;28;20109;-68
2023/08/31 05:57:49;;;;;;;40.60;31.60;;;;;;;;;;5030729;28;20121;-68
2023/08/31 06:00:16;;;;;;;39.83;32.78;;;;;;;;;;5030856;28;20029;-68
2023/08/31 06:02:44;;;;;;;40.17;33.78;;;;;;;;;;5031351;28;20099;-68
2023/08/31 06:05:12;;;;;;;37.17;29.83;;;;;;;;;;5030714;28;20025;-69
2023/08/31 06:07:38;;;;;;;37.97;32.53;;;;;;;;;;5030482;28;20498;-68
2023/08/31 06:10:04;;;;;;;40.85;33.17;;;;;;;;;;5031007;28;20029;-68
2023/08/31 06:12:31;;;;;;;38.60;32.35;;;;;;;;;;5030636;28;20021;-68
2023/08/31 06:14:57;;;;;;;38.75;31.15;;;;;;;;;;5030906;28;20052;-68
2023/08/31 06:17:23;;;;;;;37.83;31.23;;;;;;;;;;5031035;28;20021;-68
2023/08/31 06:19:49;;;;;;;35.85;27.52;;;;;;;;;;5030555;28;20545;-68
2023/08/31 06:22:15;;;;;;;37.50;31.17;;;;;;;;;;5030470;28;20033;-69
2023/08/31 06:24:42;;;;;;;39.17;31.15;;;;;;;;;;5030748;28;20057;-68
2023/08/31 06:27:08;;;;;;;37.88;31.95;;;;;;;;;;5012556;28;20383;-68
2023/08/31 06:29:34;;;;;;;34.03;29.63;;;;;;;;;;5012509;28;20030;-67
2023/08/31 06:32:00;;;;;;;32.00;28.52;;;;;;;;;;5030331;28;20091;-67
2023/08/31 06:34:26;;;;;;;34.15;27.70;;;;;;;;;;5030641;28;20029;-67
2023/08/31 06:36:52;;;;;;;31.48;28.08;;;;;;;;;;5030622;28;20406;-68
2023/08/31 06:39:18;;;;;;;31.30;27.77;;;;;;;;;;5029889;28;20079;-68
2023/08/31 06:41:44;;;;;;;26.35;23.45;;;;;;;;;;5030183;28;20037;-67
2023/08/31 06:44:10;;;;;;;29.70;22.35;;;;;;;;;;5030291;28;20033;-68
2023/08/31 06:46:37;;;;;;;26.80;22.83;;;;;;;;;;5030214;28;20017;-68
2023/08/31 06:49:04;;;;;;;27.85;24.55;;;;;;;;;;5030490;28;20025;-68
2023/08/31 06:51:31;;;;;;;29.10;22.15;;;;;;;;;;5029530;28;20037;-68
2023/08/31 06:54:02;;;;;;;29.77;23.63;;;;;;;;;;5030176;28;20021;-68
2023/08/31 06:56:28;;;;;;;29.65;25.70;;;;;;;;;;5030056;28;20028;-68
2023/08/31 06:58:54;;;;;;;28.85;22.98;;;;;;;;;;5029859;28;20442;-68
2023/08/31 07:01:20;;;;;;;26.10;23.30;;;;;;;;;;5029692;28;20044;-68
2023/08/31 07:03:45;;;;;;;24.75;21.90;;;;;;;;;;5029542;28;20053;-68
2023/08/31 07:06:11;;;;;;;24.55;20.75;;;;;;;;;;5029843;28;20029;-68
2023/08/31 07:08:40;;;;;;;29.90;23.30;;;;;;;;;;5030100;28;20029;-68
2023/08/31 07:11:06;;;;;;;24.92;22.23;;;;;;;;;;5029857;28;20037;-68
2023/08/31 07:13:33;;;;;;;26.60;23.73;;;;;;;;;;5029359;28;20136;-67
2023/08/31 07:15:59;;;;;;;24.13;19.85;;;;;;;;;;5029280;28;20113;-68
2023/08/31 07:18:25;;;;;;;27.00;23.98;;;;;;;;;;5029283;28;20029;-68
2023/08/31 07:20:51;;;;;;;30.27;25.48;;;;;;;;;;5029839;28;20029;-67
2023/08/31 07:23:17;;;;;;;28.85;25.13;;;;;;;;;;5029504;28;20057;-68
2023/08/31 07:25:43;;;;;;;31.45;27.23;;;;;;;;;;5029578;28;20476;-67
2023/08/31 07:28:10;;;;;;;29.33;24.00;;;;;;;;;;5029630;28;20025;-68
2023/08/31 07:30:37;;;;;;;25.60;22.85;;;;;;;;;;5029545;28;20037;-69
2023/08/31 07:33:03;;;;;;;25.77;22.95;;;;;;;;;;5029405;28;20029;-68
2023/08/31 07:35:30;;;;;;;22.83;19.35;;;;;;;;;;5029036;28;20083;-67
2023/08/31 07:37:56;;;;;;;25.05;20.10;;;;;;;;;;5029234;28;20036;-68
2023/08/31 07:40:22;;;;;;;26.88;22.13;;;;;;;;;;5029354;28;20056;-68
2023/08/31 07:42:48;;;;;;;25.67;21.23;;;;;;;;;;5029413;28;20026;-68
2023/08/31 07:45:14;;;;;;;28.83;20.95;;;;;;;;;;5029080;28;20025;-68
2023/08/31 07:47:40;;;;;;;27.20;22.13;;;;;;;;;;5028822;28;20108;-68
2023/08/31 07:50:06;;;;;;;24.17;18.67;;;;;;;;;;5011267;28;20030;-68
2023/08/31 07:52:32;;;;;;;21.17;18.23;;;;;;;;;;5029280;28;20091;-68
2023/08/31 07:54:58;;;;;;;27.52;20.00;;;;;;;;;;5028842;28;20034;-68
2023/08/31 07:57:24;;;;;;;19.90;15.77;;;;;;;;;;5028755;28;20049;-68
2023/08/31 07:59:51;;;;;;;21.67;17.52;;;;;;;;;;5028631;28;20111;-68
2023/08/31 08:02:17;;;;;;;17.23;12.85;;;;;;;;;;5029038;28;20882;-68
2023/08/31 08:04:43;;;;;;;19.67;16.90;;;;;;;;;;5029576;28;20026;-68
2023/08/31 08:07:09;;;;;;;19.92;16.08;;;;;;;;;;5028934;28;20413;-69
2023/08/31 08:09:35;;;;;;;21.83;19.10;;;;;;;;;;5028785;28;20112;-68
2023/08/31 08:12:01;;;;;;;22.10;17.58;;;;;;;;;;5028581;28;20047;-68
2023/08/31 08:14:27;;;;;;;22.20;18.48;;;;;;;;;;5028912;28;20112;-68
2023/08/31 08:16:53;;;;;;;21.90;17.60;;;;;;;;;;5028737;28;20029;-68
2023/08/31 08:19:23;;;;;;;22.75;18.55;;;;;;;;;;5028461;28;20025;-68
2023/08/31 08:21:49;;;;;;;24.33;17.58;;;;;;;;;;5028943;28;20037;-68
2023/08/31 08:24:15;;;;;;;25.30;19.13;;;;;;;;;;5028569;28;20052;-68
2023/08/31 08:26:41;;;;;;;22.08;16.08;;;;;;;;;;5028500;28;20021;-67
2023/08/31 08:29:07;;;;;;;25.38;17.85;;;;;;;;;;5032403;28;20037;-68
2023/08/31 08:31:33;;;;;;;22.90;18.60;;;;;;;;;;5032159;28;20073;-67
2023/08/31 08:34:00;;;;;;;21.02;14.85;;;;;;;;;;5032981;28;20021;-68
2023/08/31 08:36:26;;;;;;;20.80;14.98;;;;;;;;;;5032768;28;20044;-68
2023/08/31 08:38:52;;;;;;;20.35;13.82;;;;;;;;;;5032300;28;20029;-68
2023/08/31 08:41:25;;;;;;;19.52;14.75;;;;;;;;;;5032522;28;20592;-68
2023/08/31 08:43:52;;;;;;;17.42;12.90;;;;;;;;;;5032703;28;20063;-68
2023/08/31 08:46:18;;;;;;;14.73;10.68;;;;;;;;;;5032368;28;20048;-67
2023/08/31 08:48:45;;;;;;;15.52;11.65;;;;;;;;;;5032439;28;20039;-68
2023/08/31 08:51:11;;;;;;;18.90;14.63;;;;;;;;;;5032092;28;20471;-68
2023/08/31 08:53:38;;;;;;;17.45;11.93;;;;;;;;;;5032256;28;20387;-67
2023/08/31 08:56:05;;;;;;;14.50;11.95;;;;;;;;;;5032335;28;20041;-68
2023/08/31 08:58:31;;;;;;;20.70;12.27;;;;;;;;;;5032429;28;20079;-68
2023/08/31 09:00:57;;;;;;;18.77;11.07;;;;;;;;;;5031970;28;20026;-68
2023/08/31 09:03:24;;;;;;;16.13;12.15;;;;;;;;;;5032067;28;20451;-68
2023/08/31 09:05:51;;;;;;;15.85;11.82;;;;;;;;;;5032391;28;20029;-68
2023/08/31 09:08:17;;;;;;;15.93;11.95;;;;;;;;;;5031886;28;20028;-68
2023/08/31 09:10:44;;;;;;;18.85;12.30;;;;;;;;;;5031875;28;20025;-68
2023/08/31 09:13:10;;;;;;;12.75;8.77;;;;;;;;;;5031989;28;20025;-68
2023/08/31 09:15:41;;;;;;;14.20;10.43;;;;;;;;;;5032013;28;20549;-67
2023/08/31 09:18:07;;;;;;;14.30;9.55;;;;;;;;;;5031568;28;20025;-68
2023/08/31 09:20:43;;;;;;;10.60;6.97;;;;;;;;;;5031400;28;20030;-68
2023/08/31 09:23:12;;;;;;;11.65;8.00;;;;;;;;;;5032022;28;20029;-68
2023/08/31 09:25:42;;;;;;;16.57;8.57;;;;;;;;;;5031672;28;20033;-68
2023/08/31 09:28:08;;;;;;;12.60;8.00;;;;;;;;;;5032035;28;20270;-68
2023/08/31 09:30:38;;;;;;;11.00;6.22;;;;;;;;;;5031522;28;20034;-69
2023/08/31 09:33:05;;;;;;;7.47;5.03;;;;;;;;;;5031668;28;20068;-69
2023/08/31 09:35:31;;;;;;;12.15;5.88;;;;;;;;;;5031597;28;20030;-68
2023/08/31 09:37:57;;;;;;;10.27;5.57;;;;;;;;;;5031473;28;20021;-68
2023/08/31 09:40:24;;;;;;;9.13;5.30;;;;;;;;;;5030612;28;20120;-70
2023/08/31 09:42:53;;;;;;;8.60;4.32;;;;;;;;;;5031516;28;20084;-68
2023/08/31 09:45:24;;;;;;;12.52;5.68;;;;;;;;;;5031285;28;20037;-69
2023/08/31 09:47:50;;;;;;;9.20;5.15;;;;;;;;;;5031590;28;20014;-68
2023/08/31 09:50:17;;;;;;;9.25;4.90;;;;;;;;;;5031229;28;20021;-68
2023/08/31 09:52:44;;;;;;;8.07;3.78;;;;;;;;;;5031112;28;20121;-69
2023/08/31 09:55:11;;;;;;;9.65;4.65;;;;;;;;;;5031000;28;20075;-70
2023/08/31 09:57:38;;;;;;;10.65;4.32;;;;;;;;;;5030981;28;20077;-69
2023/08/31 10:00:04;;;;;;;8.23;4.30;;;;;;;;;;5031360;28;20030;-69
2023/08/31 10:02:31;;;;;;;7.65;4.72;;;;;;;;;;5031062;28;20033;-69
2023/08/31 10:04:58;;;;;;;8.85;3.50;;;;;;;;;;5012545;28;20105;-70
2023/08/31 10:07:25;;;;;;;6.65;3.40;;;;;;;;;;5030942;28;20025;-70
2023/08/31 10:09:51;;;;;;;7.38;3.42;;;;;;;;;;5031112;28;20022;-70
2023/08/31 10:12:17;;;;;;;8.05;5.07;;;;;;;;;;5031060;28;20029;-70
2023/08/31 10:14:46;;;;;;;10.18;4.82;;;;;;;;;;5030794;28;20029;-70
2023/08/31 10:17:12;;;;;;;8.40;4.40;;;;;;;;;;5030572;28;20479;-70
2023/08/31 10:19:39;;;;;;;10.73;5.65;;;;;;;;;;5030777;28;20029;-69
2023/08/31 10:22:06;;;;;;;6.97;4.32;;;;;;;;;;5030383;28;20025;-70
2023/08/31 10:24:51;;;;;;;8.88;3.80;;;;;;;;;;5030730;28;20041;-70
2023/08/31 10:27:20;;;;;;;9.18;4.85;;;;;;;;;;5030793;28;20022;-70
2023/08/31 10:29:46;;;;;;;6.55;4.78;;;;;;;;;;5030202;28;20084;-70
2023/08/31 10:32:18;;;;;;;8.98;5.07;;;;;;;;;;5030483;28;20036;-70
2023/08/31 10:34:46;;;;;;;9.10;4.38;;;;;;;;;;5030769;28;20527;-70
2023/08/31 10:37:23;;;;;;;6.15;2.75;;;;;;;;;;5030070;28;20018;-70
2023/08/31 10:39:49;;;;;;;7.20;3.72;;;;;;;;;;5030462;28;20100;-70
2023/08/31 10:42:15;;;;;;;7.75;4.00;;;;;;;;;;5030132;28;20108;-69
2023/08/31 10:44:43;;;;;;;4.03;1.98;;;;;;;;;;5030305;28;20586;-69
2023/08/31 10:47:09;;;;;;;5.30;2.55;;;;;;;;;;5012983;28;20048;-69
2023/08/31 10:49:37;;;;;;;5.45;1.40;;;;;;;;;;5030232;28;20021;-67
2023/08/31 10:52:17;;;;;;;5.15;1.73;;;;;;;;;;5029647;28;20088;-70
2023/08/31 10:54:43;;;;;;;3.92;1.40;;;;;;;;;;5030026;28;20025;-69
2023/08/31 10:57:12;;;;;;;3.90;1.30;;;;;;;;;;5029944;28;20050;-70
2023/08/31 10:59:45;;;;;;;5.18;1.33;;;;;;;;;;5030062;28;20029;-69
2023/08/31 11:02:28;;;;;;;2.70;1.23;;;;;;;;;;5030034;28;20088;-69
2023/08/31 11:05:04;;;;;;;6.80;1.75;;;;;;;;;;5029958;28;20036;-70
2023/08/31 11:07:30;;;;;;;5.53;1.63;;;;;;;;;;5030238;28;20592;-68
2023/08/31 11:10:10;;;;;;;3.97;1.20;;;;;;;;;;5029643;28;20030;-70
2023/08/31 11:12:36;;;;;;;6.32;1.80;;;;;;;;;;5029522;28;20483;-69
2023/08/31 11:15:03;;;;;;;5.68;1.33;;;;;;;;;;5030033;28;20021;-69
2023/08/31 11:17:30;;;;;;;6.80;1.63;;;;;;;;;;5029629;28;20017;-68
2023/08/31 11:19:57;;;;;;;7.55;2.15;;;;;;;;;;5028940;28;20057;-69
2023/08/31 11:22:23;;;;;;;4.47;1.23;;;;;;;;;;5029638;28;20017;-69
2023/08/31 11:24:49;;;;;;;3.95;1.42;;;;;;;;;;5029107;28;20025;-69
2023/08/31 11:27:15;;;;;;;3.63;1.10;;;;;;;;;;5029137;28;20372;-70
2023/08/31 11:29:44;;;;;;;4.90;1.50;;;;;;;;;;5029160;28;20061;-69
2023/08/31 11:32:10;;;;;;;3.53;1.00;;;;;;;;;;5028681;28;20049;-69
2023/08/31 11:34:41;;;;;;;2.85;0.90;;;;;;;;;;5029007;28;20064;-70
2023/08/31 11:37:08;;;;;;;4.03;1.10;;;;;;;;;;5029387;28;20025;-68
2023/08/31 11:39:34;;;;;;;5.38;1.23;;;;;;;;;;5029233;28;20430;-70
2023/08/31 11:42:00;;;;;;;5.10;0.90;;;;;;;;;;5029394;28;20063;-71
2023/08/31 11:44:26;;;;;;;4.47;1.35;;;;;;;;;;5029259;28;20446;-70
2023/08/31 11:46:52;;;;;;;5.47;1.15;;;;;;;;;;5028800;28;20096;-69
2023/08/31 11:49:18;;;;;;;4.38;0.80;;;;;;;;;;5029103;28;20072;-70
2023/08/31 11:51:45;;;;;;;4.80;0.98;;;;;;;;;;5028965;28;20038;-70
2023/08/31 11:54:11;;;;;;;2.63;0.95;;;;;;;;;;5028720;28;20057;-70
2023/08/31 11:56:46;;;;;;;2.58;0.90;;;;;;;;;;5029114;28;20028;-71
2023/08/31 11:59:12;;;;;;;4.00;0.93;;;;;;;;;;5011263;28;20498;-71
2023/08/31 12:01:42;;;;;;;2.55;0.70;;;;;;;;;;5029141;28;20095;-70
2023/08/31 12:04:08;;;;;;;;;;;;;;;;;;5028988;28;20149;-70
2023/08/31 12:06:34;;;;;;;2.00;0.60;;;;;;;;;;5028836;28;19991;-70
2023/08/31 12:09:00;;;;;;;4.35;1.05;;;;;;;;;;5029234;28;20115;-70
2023/08/31 12:11:26;;;;;;;4.72;1.05;;;;;;;;;;5028628;28;20045;-69
2023/08/31 12:13:52;;;;;;;2.38;0.95;;;;;;;;;;5028746;28;20030;-70
2023/08/31 12:16:18;;;;;;;4.47;1.08;;;;;;;;;;5028375;28;20036;-70
2023/08/31 12:18:45;;;;;;;5.78;0.93;;;;;;;;;;5028877;28;20041;-69
2023/08/31 12:21:12;;;;;;;3.70;0.80;;;;;;;;;;5028539;28;20372;-70
2023/08/31 12:23:38;;;;;;;3.65;1.00;;;;;;;;;;5028372;28;20387;-70
2023/08/31 12:26:08;;;;;;;3.42;0.80;;;;;;;;;;5028640;28;20026;-69
2023/08/31 12:28:34;;;;;;;3.00;0.80;;;;;;;;;;5028028;28;20376;-70
2023/08/31 12:31:00;;;;;;;4.20;0.77;;;;;;;;;;5028335;28;20103;-70
2023/08/31 12:33:26;;;;;;;4.88;1.23;;;;;;;;;;5028514;28;20025;-70
2023/08/31 12:35:52;;;;;;;2.30;0.60;;;;;;;;;;5028750;28;20071;-70
2023/08/31 12:38:19;;;;;;;6.72;1.23;;;;;;;;;;5028193;28;20025;-70
2023/08/31 12:40:45;;;;;;;4.75;1.30;;;;;;;;;;5028436;28;20022;-71
2023/08/31 12:43:12;;;;;;;2.30;0.90;;;;;;;;;;5028280;28;20129;-70
2023/08/31 12:45:38;;;;;;;4.50;1.42;;;;;;;;;;5028336;28;20129;-70
2023/08/31 12:48:05;;;;;;;3.70;0.93;;;;;;;;;;5028601;28;20025;-71
2023/08/31 12:50:31;;;;;;;2.22;0.90;;;;;;;;;;5028317;28;20453;-70
2023/08/31 12:52:58;;;;;;;3.15;0.88;;;;;;;;;;5027925;28;20068;-70
2023/08/31 12:55:24;;;;;;;4.47;0.90;;;;;;;;;;5028098;28;20052;-70
2023/08/31 12:57:50;;;;;;;5.00;0.98;;;;;;;;;;5028068;28;20124;-68
2023/08/31 13:00:17;;;;;;;3.45;0.93;;;;;;;;;;5027928;28;20369;-71
2023/08/31 13:02:44;;;;;;;5.50;1.00;;;;;;;;;;5028430;28;20026;-70
2023/08/31 13:05:11;;;;;;;2.33;0.70;;;;;;;;;;5010272;28;20498;-70
2023/08/31 13:07:37;;;;;;;5.72;1.45;;;;;;;;;;5028617;28;20029;-70
2023/08/31 13:10:04;;;;;;;2.60;0.90;;;;;;;;;;5028307;28;20022;-70
2023/08/31 13:12:34;;;;;;;3.25;1.13;;;;;;;;;;5027688;28;20832;-70
2023/08/31 13:15:00;;;;;;;4.13;0.93;;;;;;;;;;5029411;28;20025;-70
2023/08/31 13:17:27;;;;;;;2.85;0.82;;;;;;;;;;5031785;28;20155;-69
2023/08/31 13:19:53;;;;;;;2.28;0.60;;;;;;;;;;5031574;28;20052;-69
2023/08/31 13:22:19;;;;;;;4.07;0.88;;;;;;;;;;5031691;28;20517;-69
2023/08/31 13:24:46;;;;;;;3.60;0.88;;;;;;;;;;5031639;28;20026;-69
2023/08/31 13:27:13;;;;;;;4.38;0.90;;;;;;;;;;5031743;28;20355;-69
2023/08/31 13:29:39;;;;;;;3.67;0.80;;;;;;;;;;5031057;28;20029;-70
2023/08/31 13:32:05;;;;;;;1.95;0.50;;;;;;;;;;5031177;28;20116;-71
2023/08/31 13:34:32;;;;;;;3.58;1.08;;;;;;;;;;5031548;28;20452;-71
2023/08/31 13:36:58;;;;;;;4.00;1.35;;;;;;;;;;5013795;28;20391;-70
2023/08/31 13:39:24;;;;;;;4.85;1.75;;;;;;;;;;5031054;28;20025;-71
2023/08/31 13:41:53;;;;;;;5.07;0.98;;;;;;;;;;5031350;28;20368;-70
2023/08/31 13:44:23;;;;;;;2.90;0.83;;;;;;;;;;5031154;28;20029;-70
2023/08/31 13:46:49;;;;;;;4.35;0.80;;;;;;;;;;5031484;28;20026;-71
2023/08/31 13:49:15;;;;;;;1.30;0.70;;;;;;;;;;5030691;28;20030;-70
2023/08/31 13:51:42;;;;;;;2.33;0.70;;;;;;;;;;5030960;28;20041;-71
2023/08/31 13:54:08;;;;;;;4.53;1.08;;;;;;;;;;5031135;28;20086;-71
2023/08/31 13:56:35;;;;;;;2.35;0.90;;;;;;;;;;5030694;28;20490;-70
2023/08/31 13:59:01;;;;;;;5.22;1.10;;;;;;;;;;5012965;28;20041;-71
2023/08/31 14:01:27;;;;;;;7.15;1.50;;;;;;;;;;5030910;28;20029;-70
2023/08/31 14:03:53;;;;;;;2.22;0.77;;;;;;;;;;5031038;28;20026;-70
2023/08/31 14:06:19;;;;;;;2.20;0.95;;;;;;;;;;5030922;28;20422;-70
2023/08/31 14:08:45;;;;;;;4.68;1.38;;;;;;;;;;5030376;28;20113;-70
2023/08/31 14:11:11;;;;;;;3.22;1.10;;;;;;;;;;5030782;28;20121;-70
2023/08/31 14:13:37;;;;;;;5.00;1.15;;;;;;;;;;5030636;28;20494;-69
2023/08/31 14:16:04;;;;;;;2.08;0.80;;;;;;;;;;5030562;28;20087;-70
2023/08/31 14:18:31;;;;;;;3.05;1.08;;;;;;;;;;5030738;28;20052;-70
2023/08/31 14:20:59;;;;;;;2.92;0.95;;;;;;;;;;5030559;28;20040;-70
2023/08/31 14:23:25;;;;;;;3.20;1.05;;;;;;;;;;5030145;28;20033;-70
2023/08/31 14:25:51;;;;;;;4.43;1.13;;;;;;;;;;5030166;28;20479;-70
2023/08/31 14:28:17;;;;;;;4.00;1.45;;;;;;;;;;5030574;28;20491;-70